Time;durP1;ratioP1;P1;durP2;ratioP2;P2;SDS_P1;SDS_P2;PMS_P1;PMS_P2;Temp;Humidity;BMP_temperature;BMP_pressure;BME280_temperature;BME280_humidity;BME280_pressure;Samples;Min_cycle;Max_cycle;Signal;HPM_P1;HPM_P2
2022/04/11 00:00:07;;;;;;;;;;;15.00;79.40;;;;;;688667;28;1158;-41
2022/04/11 00:00:48;;;;;;;;;;;15.00;79.40;;;;;;688699;28;2330;-42
2022/04/11 00:01:09;;;;;;;;;;;15.00;79.40;;;;;;688847;28;1008;-41
2022/04/11 00:01:30;;;;;;;;;;;15.00;79.40;;;;;;689785;28;1090;-43
2022/04/11 00:01:50;;;;;;;;;;;15.00;79.40;;;;;;694409;28;1082;-41
2022/04/11 00:02:11;;;;;;;;;;;15.00;79.40;;;;;;694433;28;1113;-43
2022/04/11 00:02:32;;;;;;;;;;;15.00;79.40;;;;;;694524;28;959;-42
2022/04/11 00:02:53;;;;;;;;;;;15.00;79.40;;;;;;694462;28;1011;-43
2022/04/11 00:03:14;;;;;;;;;;;15.00;79.40;;;;;;694507;28;1082;-42
2022/04/11 00:03:35;;;;;;;;;;;15.00;79.40;;;;;;694335;28;1914;-41
2022/04/11 00:03:55;;;;;;;;;;;15.00;79.40;;;;;;694428;28;1102;-41
2022/04/11 00:04:16;;;;;;;;;;;15.00;79.40;;;;;;694344;28;948;-42
2022/04/11 00:04:37;;;;;;;;;;;15.00;79.40;;;;;;691543;28;1086;-43
2022/04/11 00:04:57;;;;;;;;;;;15.00;79.40;;;;;;691501;28;1091;-43
2022/04/11 00:05:18;;;;;;;;;;;15.00;79.40;;;;;;691572;28;1082;-41
2022/04/11 00:05:39;;;;;;;;;;;15.00;79.40;;;;;;691425;28;1053;-41
2022/04/11 00:06:00;;;;;;;;;;;15.00;79.40;;;;;;691566;28;703;-41
2022/04/11 00:06:21;;;;;;;;;;;15.10;79.50;;;;;;692028;28;1081;-41
2022/04/11 00:06:41;;;;;;;;;;;15.00;79.50;;;;;;688927;28;817;-43
2022/04/11 00:07:02;;;;;;;;;;;15.00;79.50;;;;;;688831;28;1003;-41
2022/04/11 00:07:23;;;;;;;;;;;15.00;79.50;;;;;;688830;28;1007;-41
2022/04/11 00:07:44;;;;;;;;;;;15.00;79.50;;;;;;688739;28;1006;-41
2022/04/11 00:08:05;;;;;;;;;;;15.00;79.50;;;;;;688771;28;1067;-41
2022/04/11 00:08:26;;;;;;;;;;;15.00;79.50;;;;;;689786;28;1110;-41
2022/04/11 00:08:46;;;;;;;;;;;15.00;79.60;;;;;;694456;28;1062;-41
2022/04/11 00:09:07;;;;;;;;;;;15.00;79.50;;;;;;694444;28;1019;-42
2022/04/11 00:09:28;;;;;;;;;;;15.00;79.60;;;;;;694495;28;961;-42
2022/04/11 00:09:49;;;;;;;;;;;15.00;79.60;;;;;;694427;28;1015;-41
2022/04/11 00:10:09;;;;;;;;;;;15.00;79.60;;;;;;693785;28;1124;-41
2022/04/11 00:10:30;;;;;;;;;;;15.00;79.60;;;;;;694458;28;1086;-41
2022/04/11 00:10:51;;;;;;;;;;;15.00;80.30;;;;;;691455;28;991;-40
2022/04/11 00:11:12;;;;;;;;;;;15.00;79.70;;;;;;691481;28;1027;-43
2022/04/11 00:11:32;;;;;;;;;;;15.00;79.80;;;;;;691607;28;1050;-42
2022/04/11 00:11:54;;;;;;;;;;;15.00;79.80;;;;;;691468;28;1117;-41
2022/04/11 00:12:15;;;;;;;;;;;15.00;79.80;;;;;;691422;28;988;-42
2022/04/11 00:12:37;;;;;;;;;;;15.00;79.80;;;;;;692260;28;1023;-41
2022/04/11 00:13:04;;;;;;;;;;;15.00;79.80;;;;;;694314;28;1005;-42
2022/04/11 00:13:25;;;;;;;;;;;15.00;79.80;;;;;;694473;28;1011;-41
2022/04/11 00:13:46;;;;;;;;;;;15.00;79.80;;;;;;694380;28;1099;-41
2022/04/11 00:14:07;;;;;;;;;;;15.00;79.90;;;;;;694312;28;1044;-41
2022/04/11 00:14:28;;;;;;;;;;;14.90;79.80;;;;;;694401;28;1022;-42
2022/04/11 00:14:48;;;;;;;;;;;15.00;79.90;;;;;;694359;28;1023;-43
2022/04/11 00:15:09;;;;;;;;;;;14.90;79.90;;;;;;694405;28;999;-41
2022/04/11 00:15:30;;;;;;;;;;;15.00;79.90;;;;;;694386;28;1067;-41
2022/04/11 00:15:51;;;;;;;;;;;15.00;79.90;;;;;;694443;28;988;-43
2022/04/11 00:16:13;;;;;;;;;;;15.00;79.90;;;;;;694372;28;1062;-42
2022/04/11 00:16:34;;;;;;;;;;;15.00;79.90;;;;;;694442;28;1092;-41
2022/04/11 00:16:55;;;;;;;;;;;15.00;80.00;;;;;;694425;28;1039;-41
2022/04/11 00:17:16;;;;;;;;;;;15.00;79.90;;;;;;691540;28;1097;-41
2022/04/11 00:17:37;;;;;;;;;;;15.00;80.00;;;;;;691490;28;1019;-43
2022/04/11 00:18:00;;;;;;;;;;;15.00;80.00;;;;;;691617;28;951;-41
2022/04/11 00:18:20;;;;;;;;;;;15.00;80.00;;;;;;691192;28;1023;-43
2022/04/11 00:18:41;;;;;;;;;;;14.90;79.90;;;;;;691448;28;979;-40
2022/04/11 00:19:02;;;;;;;;;;;14.90;79.90;;;;;;689456;28;983;-41
2022/04/11 00:19:23;;;;;;;;;;;15.00;80.00;;;;;;691529;28;979;-40
2022/04/11 00:19:44;;;;;;;;;;;15.00;80.00;;;;;;691539;28;1050;-42
2022/04/11 00:20:05;;;;;;;;;;;15.00;80.00;;;;;;691563;28;1007;-42
2022/04/11 00:20:26;;;;;;;;;;;15.00;80.00;;;;;;691411;28;1040;-41
2022/04/11 00:20:47;;;;;;;;;;;15.00;80.00;;;;;;692095;28;1098;-45
2022/04/11 00:21:08;;;;;;;;;;;15.00;80.00;;;;;;694322;28;976;-41
2022/04/11 00:21:28;;;;;;;;;;;15.00;80.00;;;;;;694497;28;987;-43
2022/04/11 00:21:49;;;;;;;;;;;15.00;79.90;;;;;;694388;28;1097;-41
2022/04/11 00:22:10;;;;;;;;;;;15.00;80.00;;;;;;694521;28;982;-43
2022/04/11 00:22:37;;;;;;;;;;;15.00;80.00;;;;;;694349;28;1015;-42
2022/04/11 00:22:57;;;;;;;;;;;15.00;80.00;;;;;;694519;28;1172;-41
2022/04/11 00:23:18;;;;;;;;;;;15.00;80.00;;;;;;691586;28;1026;-44
2022/04/11 00:23:39;;;;;;;;;;;15.00;80.00;;;;;;691430;28;1977;-43
2022/04/11 00:24:00;;;;;;;;;;;15.00;79.90;;;;;;691571;28;1015;-43
2022/04/11 00:24:21;;;;;;;;;;;15.00;79.90;;;;;;691455;28;979;-42
2022/04/11 00:24:41;;;;;;;;;;;15.00;79.90;;;;;;691415;28;1035;-43
2022/04/11 00:25:03;;;;;;;;;;;15.00;79.90;;;;;;689281;28;987;-42
2022/04/11 00:25:24;;;;;;;;;;;15.00;80.00;;;;;;691435;28;1045;-41
2022/04/11 00:25:44;;;;;;;;;;;15.00;80.00;;;;;;688676;28;1064;-43
2022/04/11 00:26:05;;;;;;;;;;;15.00;80.00;;;;;;688721;28;1118;-43
2022/04/11 00:26:26;;;;;;;;;;;15.00;80.00;;;;;;688849;28;990;-41
2022/04/11 00:26:47;;;;;;;;;;;15.00;80.00;;;;;;689250;28;1054;-41
2022/04/11 00:27:07;;;;;;;;;;;15.00;79.90;;;;;;688708;28;1027;-45
2022/04/11 00:27:29;;;;;;;;;;;15.00;79.90;;;;;;689296;28;695;-41
2022/04/11 00:27:49;;;;;;;;;;;15.00;80.00;;;;;;691474;28;1106;-41
2022/04/11 00:28:10;;;;;;;;;;;15.00;79.90;;;;;;691530;28;1055;-41
2022/04/11 00:28:31;;;;;;;;;;;15.00;80.50;;;;;;691458;28;1041;-41
2022/04/11 00:28:53;;;;;;;;;;;14.90;79.80;;;;;;692046;28;1042;-41
2022/04/11 00:29:14;;;;;;;;;;;15.00;79.90;;;;;;694407;28;1172;-41
2022/04/11 00:29:35;;;;;;;;;;;15.00;79.90;;;;;;694445;28;1066;-41
2022/04/11 00:29:56;;;;;;;;;;;15.00;79.90;;;;;;694355;28;1066;-43
2022/04/11 00:30:16;;;;;;;;;;;15.00;79.80;;;;;;691578;28;877;-41
2022/04/11 00:30:37;;;;;;;;;;;15.00;79.80;;;;;;691466;28;1106;-41
2022/04/11 00:30:58;;;;;;;;;;;15.00;79.80;;;;;;691431;28;1855;-41
2022/04/11 00:31:19;;;;;;;;;;;15.00;79.80;;;;;;691414;28;1050;-41
2022/04/11 00:31:40;;;;;;;;;;;15.00;79.80;;;;;;688724;28;1041;-41
2022/04/11 00:32:00;;;;;;;;;;;15.00;79.80;;;;;;689096;28;1026;-41
2022/04/11 00:32:21;;;;;;;;;;;15.00;79.80;;;;;;691433;28;1043;-41
2022/04/11 00:32:44;;;;;;;;;;;15.00;79.80;;;;;;691446;28;1113;-41
2022/04/11 00:33:04;;;;;;;;;;;15.00;79.80;;;;;;688769;28;1015;-44
2022/04/11 00:33:25;;;;;;;;;;;15.00;79.80;;;;;;689330;28;1042;-42
2022/04/11 00:33:46;;;;;;;;;;;15.00;79.80;;;;;;691568;28;1043;-41
2022/04/11 00:34:07;;;;;;;;;;;15.00;79.80;;;;;;691462;28;1082;-41
2022/04/11 00:34:28;;;;;;;;;;;15.00;79.80;;;;;;691334;28;1394;-42
2022/04/11 00:34:49;;;;;;;;;;;15.00;79.70;;;;;;692271;28;1102;-43
2022/04/11 00:35:10;;;;;;;;;;;15.00;79.80;;;;;;694362;28;1075;-43
2022/04/11 00:35:30;;;;;;;;;;;15.00;79.70;;;;;;691352;28;1080;-44
2022/04/11 00:35:51;;;;;;;;;;;15.00;79.70;;;;;;691430;28;968;-41
2022/04/11 00:36:12;;;;;;;;;;;15.00;79.70;;;;;;691484;28;1027;-42
2022/04/11 00:36:33;;;;;;;;;;;15.00;79.70;;;;;;691589;28;967;-42
2022/04/11 00:36:53;;;;;;;;;;;15.00;80.20;;;;;;691558;28;1058;-41
2022/04/11 00:37:14;;;;;;;;;;;15.00;79.70;;;;;;692046;28;987;-43
2022/04/11 00:37:35;;;;;;;;;;;15.00;79.70;;;;;;694282;28;980;-42
2022/04/11 00:37:56;;;;;;;;;;;15.00;79.70;;;;;;694489;28;970;-41
2022/04/11 00:38:16;;;;;;;;;;;15.00;79.70;;;;;;694290;28;1037;-41
2022/04/11 00:38:37;;;;;;;;;;;15.00;79.70;;;;;;694498;28;1046;-43
2022/04/11 00:38:58;;;;;;;;;;;15.00;79.70;;;;;;694434;28;1007;-42
2022/04/11 00:39:19;;;;;;;;;;;15.00;79.70;;;;;;694368;28;1015;-41
2022/04/11 00:39:39;;;;;;;;;;;15.00;79.70;;;;;;691363;28;1143;-44
2022/04/11 00:40:00;;;;;;;;;;;15.00;79.70;;;;;;691607;28;1058;-41
2022/04/11 00:40:21;;;;;;;;;;;15.00;79.60;;;;;;691473;28;1141;-42
2022/04/11 00:40:42;;;;;;;;;;;15.00;79.60;;;;;;691507;28;1018;-41
2022/04/11 00:41:03;;;;;;;;;;;15.00;79.60;;;;;;691356;28;1035;-41
2022/04/11 00:41:23;;;;;;;;;;;15.00;79.60;;;;;;691988;28;1052;-42
2022/04/11 00:41:44;;;;;;;;;;;15.00;79.60;;;;;;694342;28;1074;-41
2022/04/11 00:42:12;;;;;;;;;;;15.00;79.60;;;;;;691520;28;722;-42
2022/04/11 00:42:33;;;;;;;;;;;15.00;79.60;;;;;;691468;28;1042;-41
2022/04/11 00:42:54;;;;;;;;;;;15.00;79.60;;;;;;688773;28;1035;-41
2022/04/11 00:43:33;;;;;;;;;;;15.00;79.60;;;;;;688778;28;1016;-42
2022/04/11 00:43:54;;;;;;;;;;;15.00;79.60;;;;;;689838;28;1031;-42
2022/04/11 00:44:15;;;;;;;;;;;15.00;79.50;;;;;;691463;28;940;-41
2022/04/11 00:44:35;;;;;;;;;;;15.00;79.50;;;;;;691459;28;1079;-43
2022/04/11 00:44:57;;;;;;;;;;;15.00;79.50;;;;;;691327;28;1040;-44
2022/04/11 00:45:18;;;;;;;;;;;15.00;79.50;;;;;;691490;28;1062;-41
2022/04/11 00:45:38;;;;;;;;;;;15.00;79.50;;;;;;691347;28;1059;-42
2022/04/11 00:45:59;;;;;;;;;;;15.00;79.50;;;;;;691359;28;1036;-42
2022/04/11 00:46:20;;;;;;;;;;;15.00;79.50;;;;;;691990;28;996;-42
2022/04/11 00:46:41;;;;;;;;;;;15.00;79.50;;;;;;694378;28;992;-41
2022/04/11 00:47:02;;;;;;;;;;;15.00;79.50;;;;;;694327;28;1070;-41
2022/04/11 00:47:23;;;;;;;;;;;15.00;79.40;;;;;;694381;28;1137;-41
2022/04/11 00:47:45;;;;;;;;;;;15.00;79.40;;;;;;691400;28;1082;-41
2022/04/11 00:48:06;;;;;;;;;;;15.00;79.50;;;;;;691402;28;971;-43
2022/04/11 00:48:27;;;;;;;;;;;15.00;79.40;;;;;;691498;28;1071;-41
2022/04/11 00:48:47;;;;;;;;;;;15.00;79.40;;;;;;691583;28;1866;-41
2022/04/11 00:49:08;;;;;;;;;;;15.00;79.40;;;;;;691530;28;975;-43
2022/04/11 00:49:29;;;;;;;;;;;15.00;79.40;;;;;;691511;28;970;-41
2022/04/11 00:49:50;;;;;;;;;;;15.00;79.40;;;;;;691437;28;1094;-41
2022/04/11 00:50:11;;;;;;;;;;;15.00;79.40;;;;;;688720;28;1345;-42
2022/04/11 00:50:32;;;;;;;;;;;15.00;79.40;;;;;;689295;28;1057;-41
2022/04/11 00:51:02;;;;;;;;;;;15.00;79.40;;;;;;686092;28;1182;-42
2022/04/11 00:51:23;;;;;;;;;;;15.00;79.40;;;;;;686006;28;985;-41
2022/04/11 00:51:44;;;;;;;;;;;15.00;79.40;;;;;;685972;28;979;-41
2022/04/11 00:52:05;;;;;;;;;;;15.00;79.40;;;;;;687792;28;1083;-41
2022/04/11 00:52:27;;;;;;;;;;;15.00;79.30;;;;;;688759;28;1149;-41
2022/04/11 00:52:49;;;;;;;;;;;15.00;79.30;;;;;;689904;28;1119;-43
2022/04/11 00:53:10;;;;;;;;;;;15.00;79.30;;;;;;691465;28;1054;-42
2022/04/11 00:53:31;;;;;;;;;;;15.00;79.30;;;;;;691522;28;959;-42
2022/04/11 00:53:52;;;;;;;;;;;15.00;79.30;;;;;;691446;28;1007;-41
2022/04/11 00:54:13;;;;;;;;;;;15.00;79.30;;;;;;688701;28;1090;-41
2022/04/11 00:54:34;;;;;;;;;;;15.00;79.30;;;;;;689512;28;1027;-41
2022/04/11 00:54:54;;;;;;;;;;;15.00;79.30;;;;;;691512;28;979;-41
2022/04/11 00:55:16;;;;;;;;;;;15.00;79.30;;;;;;691470;28;979;-41
2022/04/11 00:55:37;;;;;;;;;;;15.00;79.30;;;;;;691524;28;1011;-42
2022/04/11 00:55:58;;;;;;;;;;;15.00;79.20;;;;;;692086;28;1114;-41
2022/04/11 00:56:20;;;;;;;;;;;15.00;79.30;;;;;;691484;28;1067;-41
2022/04/11 00:56:41;;;;;;;;;;;15.00;79.30;;;;;;691347;28;1047;-42
2022/04/11 00:57:02;;;;;;;;;;;15.00;79.30;;;;;;691537;28;1077;-41
2022/04/11 00:57:22;;;;;;;;;;;15.00;79.30;;;;;;691578;28;1038;-40
2022/04/11 00:57:43;;;;;;;;;;;15.00;79.30;;;;;;691405;28;987;-41
2022/04/11 00:58:04;;;;;;;;;;;15.00;79.30;;;;;;691414;28;1207;-41
2022/04/11 00:58:25;;;;;;;;;;;15.00;79.20;;;;;;689388;28;719;-41
2022/04/11 00:58:46;;;;;;;;;;;15.00;79.30;;;;;;691435;28;1153;-41
2022/04/11 00:59:07;;;;;;;;;;;15.00;79.30;;;;;;691492;28;1019;-41
2022/04/11 00:59:28;;;;;;;;;;;15.00;79.20;;;;;;691440;28;975;-41
2022/04/11 00:59:48;;;;;;;;;;;15.00;79.20;;;;;;688725;28;1024;-41
2022/04/11 01:00:13;;;;;;;;;;;15.00;79.20;;;;;;688734;28;976;-41
2022/04/11 01:00:34;;;;;;;;;;;15.00;79.30;;;;;;686027;28;1110;-44
2022/04/11 01:00:55;;;;;;;;;;;15.00;79.30;;;;;;686035;28;1048;-42
2022/04/11 01:01:16;;;;;;;;;;;15.00;79.30;;;;;;686167;28;972;-43
2022/04/11 01:01:37;;;;;;;;;;;15.00;79.30;;;;;;687005;28;1041;-41
2022/04/11 01:01:59;;;;;;;;;;;15.00;79.30;;;;;;686035;28;1311;-43
2022/04/11 01:02:20;;;;;;;;;;;15.00;79.20;;;;;;687133;28;1024;-41
2022/04/11 01:02:40;;;;;;;;;;;15.00;79.20;;;;;;688654;28;972;-42
2022/04/11 01:03:01;;;;;;;;;;;15.00;79.20;;;;;;688766;28;1003;-41
2022/04/11 01:03:22;;;;;;;;;;;15.00;79.20;;;;;;686078;28;1087;-41
2022/04/11 01:03:43;;;;;;;;;;;15.00;79.20;;;;;;686608;28;1989;-43
2022/04/11 01:04:04;;;;;;;;;;;15.00;79.20;;;;;;689190;28;1028;-43
2022/04/11 01:04:26;;;;;;;;;;;15.00;79.20;;;;;;691368;28;1031;-43
2022/04/11 01:04:47;;;;;;;;;;;15.00;79.20;;;;;;691327;28;1053;-43
2022/04/11 01:05:08;;;;;;;;;;;15.00;79.20;;;;;;692237;28;1074;-41
2022/04/11 01:05:29;;;;;;;;;;;15.00;79.20;;;;;;694368;28;996;-41
2022/04/11 01:05:50;;;;;;;;;;;15.00;79.20;;;;;;694382;28;1094;-40
2022/04/11 01:06:11;;;;;;;;;;;15.00;79.20;;;;;;694428;28;1117;-46
2022/04/11 01:06:31;;;;;;;;;;;15.00;79.20;;;;;;694288;28;1113;-41
2022/04/11 01:06:55;;;;;;;;;;;15.00;79.20;;;;;;691487;28;1019;-41
2022/04/11 01:07:16;;;;;;;;;;;15.00;79.20;;;;;;688779;28;979;-41
2022/04/11 01:07:37;;;;;;;;;;;15.00;79.20;;;;;;688781;28;990;-40
2022/04/11 01:08:02;;;;;;;;;;;15.00;79.20;;;;;;688780;28;1016;-41
2022/04/11 01:08:23;;;;;;;;;;;15.00;79.20;;;;;;688535;28;985;-42
2022/04/11 01:08:44;;;;;;;;;;;15.00;79.20;;;;;;690195;28;1047;-41
2022/04/11 01:09:04;;;;;;;;;;;15.00;79.20;;;;;;691464;28;1030;-43
2022/04/11 01:09:26;;;;;;;;;;;15.00;79.20;;;;;;691457;28;1023;-42
2022/04/11 01:09:46;;;;;;;;;;;15.00;79.20;;;;;;691411;28;1019;-41
2022/04/11 01:10:08;;;;;;;;;;;15.00;79.20;;;;;;691946;28;1019;-41
2022/04/11 01:10:29;;;;;;;;;;;15.00;79.20;;;;;;694160;28;1041;-41
2022/04/11 01:10:49;;;;;;;;;;;15.00;79.20;;;;;;694250;28;1008;-41
2022/04/11 01:11:10;;;;;;;;;;;15.00;79.20;;;;;;691383;28;1071;-41
2022/04/11 01:11:31;;;;;;;;;;;15.00;79.20;;;;;;691457;28;1058;-41
2022/04/11 01:11:52;;;;;;;;;;;15.00;79.20;;;;;;691402;28;1078;-41
2022/04/11 01:12:15;;;;;;;;;;;15.00;79.20;;;;;;691556;28;979;-41
2022/04/11 01:12:35;;;;;;;;;;;15.00;79.20;;;;;;691367;28;999;-41
2022/04/11 01:12:56;;;;;;;;;;;15.00;79.20;;;;;;692261;28;1015;-41
2022/04/11 01:13:17;;;;;;;;;;;15.00;79.20;;;;;;694294;28;1082;-41
2022/04/11 01:13:39;;;;;;;;;;;14.90;79.20;;;;;;694425;28;1065;-41
2022/04/11 01:14:00;;;;;;;;;;;15.00;79.20;;;;;;691322;28;1070;-41
2022/04/11 01:14:21;;;;;;;;;;;15.00;79.20;;;;;;691544;28;1063;-41
2022/04/11 01:14:42;;;;;;;;;;;15.00;79.20;;;;;;691246;28;971;-42
2022/04/11 01:15:03;;;;;;;;;;;15.00;79.20;;;;;;691473;28;1094;-44
2022/04/11 01:15:24;;;;;;;;;;;15.00;79.70;;;;;;691434;28;1862;-42
2022/04/11 01:15:55;;;;;;;;;;;15.00;79.10;;;;;;692114;28;1057;-41
2022/04/11 01:16:24;;;;;;;;;;;15.00;79.10;;;;;;694422;28;943;-43
2022/04/11 01:16:52;;;;;;;;;;;15.00;79.10;;;;;;691338;28;1118;-41
2022/04/11 01:17:12;;;;;;;;;;;15.00;79.10;;;;;;691293;28;1000;-41
2022/04/11 01:17:33;;;;;;;;;;;15.00;79.10;;;;;;691498;28;971;-42
2022/04/11 01:17:54;;;;;;;;;;;15.00;79.10;;;;;;685852;28;975;-41
2022/04/11 01:18:15;;;;;;;;;;;15.00;79.10;;;;;;683332;29;1067;-41
2022/04/11 01:18:36;;;;;;;;;;;15.00;79.00;;;;;;683198;29;981;-41
2022/04/11 01:18:57;;;;;;;;;;;15.00;79.00;;;;;;683262;28;988;-44
2022/04/11 01:19:18;;;;;;;;;;;15.00;79.00;;;;;;683168;29;1067;-41
2022/04/11 01:19:39;;;;;;;;;;;15.00;79.00;;;;;;684972;28;955;-41
2022/04/11 01:20:05;;;;;;;;;;;15.00;79.00;;;;;;692054;28;983;-43
2022/04/11 01:20:26;;;;;;;;;;;15.00;79.00;;;;;;694423;28;880;-43
2022/04/11 01:20:47;;;;;;;;;;;15.00;79.00;;;;;;694143;28;1034;-42
2022/04/11 01:21:08;;;;;;;;;;;15.00;79.00;;;;;;694286;28;1012;-41
2022/04/11 01:21:31;;;;;;;;;;;15.00;79.00;;;;;;694444;28;991;-45
2022/04/11 01:21:52;;;;;;;;;;;15.00;79.00;;;;;;694402;28;1063;-41
2022/04/11 01:22:12;;;;;;;;;;;15.00;79.00;;;;;;694370;28;1019;-44
2022/04/11 01:22:33;;;;;;;;;;;15.00;79.00;;;;;;694286;28;1025;-41
2022/04/11 01:22:54;;;;;;;;;;;15.00;79.00;;;;;;694225;28;1023;-41
2022/04/11 01:23:15;;;;;;;;;;;15.00;79.00;;;;;;694433;28;1039;-41
2022/04/11 01:23:35;;;;;;;;;;;15.00;79.00;;;;;;694278;28;1915;-43
2022/04/11 01:23:59;;;;;;;;;;;15.00;78.90;;;;;;691540;28;983;-41
2022/04/11 01:24:23;;;;;;;;;;;15.00;78.90;;;;;;691376;28;987;-41
2022/04/11 01:24:44;;;;;;;;;;;15.00;78.90;;;;;;691434;28;1027;-42
2022/04/11 01:25:05;;;;;;;;;;;15.00;78.90;;;;;;691332;28;1060;-41
2022/04/11 01:25:26;;;;;;;;;;;15.00;78.90;;;;;;688749;28;1039;-41
2022/04/11 01:25:50;;;;;;;;;;;15.00;78.90;;;;;;690073;28;1020;-41
2022/04/11 01:26:10;;;;;;;;;;;15.00;78.90;;;;;;691512;28;1965;-42
2022/04/11 01:26:31;;;;;;;;;;;15.00;78.90;;;;;;688688;28;1024;-41
2022/04/11 01:26:52;;;;;;;;;;;15.00;78.90;;;;;;686154;28;1015;-44
2022/04/11 01:27:13;;;;;;;;;;;15.00;78.80;;;;;;686800;28;1002;-41
2022/04/11 01:27:34;;;;;;;;;;;15.00;78.90;;;;;;688615;28;985;-40
2022/04/11 01:27:54;;;;;;;;;;;15.00;78.80;;;;;;688662;28;1019;-41
2022/04/11 01:28:15;;;;;;;;;;;15.00;78.80;;;;;;689095;28;1029;-42
2022/04/11 01:28:36;;;;;;;;;;;15.00;78.80;;;;;;689211;28;1062;-41
2022/04/11 01:28:57;;;;;;;;;;;15.00;78.80;;;;;;691517;28;880;-41
2022/04/11 01:29:19;;;;;;;;;;;15.00;78.80;;;;;;691341;28;1122;-41
2022/04/11 01:29:40;;;;;;;;;;;15.00;78.80;;;;;;691447;28;1086;-41
2022/04/11 01:30:00;;;;;;;;;;;15.00;78.80;;;;;;691365;28;1126;-41
2022/04/11 01:30:21;;;;;;;;;;;15.00;78.80;;;;;;692228;28;1022;-43
2022/04/11 01:30:42;;;;;;;;;;;15.00;78.80;;;;;;694779;28;1263;-41
2022/04/11 01:31:03;;;;;;;;;;;14.90;78.70;;;;;;694870;28;1020;-42
2022/04/11 01:31:25;;;;;;;;;;;14.90;78.70;;;;;;694743;28;1141;-41
2022/04/11 01:31:46;;;;;;;;;;;15.00;78.70;;;;;;694907;28;987;-43
2022/04/11 01:32:07;;;;;;;;;;;14.90;78.70;;;;;;694850;28;1165;-40
2022/04/11 01:32:28;;;;;;;;;;;15.00;78.70;;;;;;694800;28;1038;-41
2022/04/11 01:32:49;;;;;;;;;;;15.00;78.70;;;;;;694870;28;1136;-41
2022/04/11 01:33:23;;;;;;;;;;;14.90;78.70;;;;;;694878;28;1003;-43
2022/04/11 01:33:44;;;;;;;;;;;14.90;78.70;;;;;;694928;28;1034;-41
2022/04/11 01:34:05;;;;;;;;;;;15.00;78.70;;;;;;694885;28;596;-41
2022/04/11 01:34:26;;;;;;;;;;;15.00;78.70;;;;;;694715;28;1454;-42
2022/04/11 01:34:47;;;;;;;;;;;15.00;78.70;;;;;;694861;28;1063;-42
2022/04/11 01:35:17;;;;;;;;;;;14.90;78.70;;;;;;694836;28;1004;-41
2022/04/11 01:35:38;;;;;;;;;;;15.00;78.70;;;;;;694760;28;1044;-43
2022/04/11 01:35:59;;;;;;;;;;;15.00;78.70;;;;;;694811;28;1075;-41
2022/04/11 01:36:19;;;;;;;;;;;15.00;78.70;;;;;;694837;28;1333;-43
2022/04/11 01:36:40;;;;;;;;;;;15.00;78.70;;;;;;694800;28;1026;-41
2022/04/11 01:37:01;;;;;;;;;;;15.00;78.60;;;;;;694748;28;972;-40
2022/04/11 01:37:22;;;;;;;;;;;14.90;78.60;;;;;;694793;28;1051;-41
2022/04/11 01:37:43;;;;;;;;;;;15.00;78.60;;;;;;694803;28;977;-41
2022/04/11 01:38:04;;;;;;;;;;;14.90;78.60;;;;;;694785;28;1120;-41
2022/04/11 01:38:25;;;;;;;;;;;15.00;78.60;;;;;;694876;28;1074;-41
2022/04/11 01:38:45;;;;;;;;;;;14.90;78.50;;;;;;694790;28;986;-43
2022/04/11 01:39:06;;;;;;;;;;;15.00;78.60;;;;;;694936;28;1140;-42
2022/04/11 01:39:27;;;;;;;;;;;15.00;78.60;;;;;;694813;28;1000;-41
2022/04/11 01:39:48;;;;;;;;;;;14.90;78.50;;;;;;694787;28;1044;-43
2022/04/11 01:40:09;;;;;;;;;;;15.00;78.60;;;;;;694705;28;984;-43
2022/04/11 01:40:29;;;;;;;;;;;14.90;78.50;;;;;;694904;28;971;-41
2022/04/11 01:40:51;;;;;;;;;;;15.00;78.60;;;;;;694773;28;950;-43
2022/04/11 01:41:12;;;;;;;;;;;14.90;78.50;;;;;;694857;28;1102;-43
2022/04/11 01:41:32;;;;;;;;;;;15.00;78.50;;;;;;694840;28;1109;-41
2022/04/11 01:41:53;;;;;;;;;;;14.90;78.50;;;;;;694739;28;974;-43
2022/04/11 01:42:14;;;;;;;;;;;15.00;78.50;;;;;;694791;28;1039;-42
2022/04/11 01:42:35;;;;;;;;;;;15.00;78.50;;;;;;694749;28;1008;-42
2022/04/11 01:42:55;;;;;;;;;;;14.90;78.50;;;;;;691852;28;1062;-41
2022/04/11 01:43:16;;;;;;;;;;;15.00;78.50;;;;;;689126;28;980;-43
2022/04/11 01:43:37;;;;;;;;;;;15.00;78.50;;;;;;688878;28;1911;-42
2022/04/11 01:43:58;;;;;;;;;;;14.90;78.40;;;;;;689080;28;1020;-40
2022/04/11 01:44:19;;;;;;;;;;;14.90;78.40;;;;;;689105;28;1051;-42
2022/04/11 01:44:40;;;;;;;;;;;15.00;78.50;;;;;;689551;28;1038;-40
2022/04/11 01:45:01;;;;;;;;;;;15.00;78.50;;;;;;689531;28;1106;-41
2022/04/11 01:45:21;;;;;;;;;;;15.00;78.50;;;;;;689137;28;1063;-42
2022/04/11 01:45:42;;;;;;;;;;;15.00;78.40;;;;;;689180;28;1105;-41
2022/04/11 01:46:03;;;;;;;;;;;15.00;78.50;;;;;;689072;28;1029;-41
2022/04/11 01:46:24;;;;;;;;;;;15.00;78.50;;;;;;689227;28;1016;-44
2022/04/11 01:46:46;;;;;;;;;;;15.00;78.40;;;;;;689103;28;943;-42
2022/04/11 01:47:07;;;;;;;;;;;15.00;78.40;;;;;;689794;28;1011;-41
2022/04/11 01:47:28;;;;;;;;;;;15.00;78.40;;;;;;691893;28;979;-41
2022/04/11 01:47:48;;;;;;;;;;;15.00;78.40;;;;;;692717;28;996;-41
2022/04/11 01:48:09;;;;;;;;;;;14.90;78.40;;;;;;694718;28;1031;-42
2022/04/11 01:48:30;;;;;;;;;;;14.90;78.30;;;;;;694882;28;1054;-43
2022/04/11 01:48:51;;;;;;;;;;;15.00;78.40;;;;;;694774;28;1050;-41
2022/04/11 01:49:12;;;;;;;;;;;15.00;78.40;;;;;;694849;28;1132;-41
2022/04/11 01:49:32;;;;;;;;;;;15.00;78.40;;;;;;694821;28;987;-42
2022/04/11 01:49:53;;;;;;;;;;;15.00;78.40;;;;;;694836;28;1019;-44
2022/04/11 01:50:14;;;;;;;;;;;15.00;78.40;;;;;;694680;28;1094;-41
2022/04/11 01:50:35;;;;;;;;;;;15.00;78.40;;;;;;694814;28;1031;-41
2022/04/11 01:50:56;;;;;;;;;;;15.00;78.40;;;;;;694736;28;1269;-41
2022/04/11 01:51:17;;;;;;;;;;;15.00;78.40;;;;;;694889;28;1027;-41
2022/04/11 01:51:37;;;;;;;;;;;14.90;78.30;;;;;;694753;28;962;-41
2022/04/11 01:51:58;;;;;;;;;;;14.90;78.40;;;;;;694804;28;1036;-44
2022/04/11 01:52:19;;;;;;;;;;;14.90;78.40;;;;;;694703;28;777;-43
2022/04/11 01:52:39;;;;;;;;;;;14.90;78.40;;;;;;694754;28;1035;-41
2022/04/11 01:53:07;;;;;;;;;;;15.00;78.40;;;;;;694819;28;1030;-41
2022/04/11 01:53:27;;;;;;;;;;;14.90;78.40;;;;;;694809;28;597;-41
2022/04/11 01:53:48;;;;;;;;;;;14.90;78.90;;;;;;694688;28;1016;-43
2022/04/11 01:54:09;;;;;;;;;;;14.90;78.40;;;;;;691851;28;966;-42
2022/04/11 01:54:30;;;;;;;;;;;14.90;78.50;;;;;;691879;28;1031;-43
2022/04/11 01:54:50;;;;;;;;;;;15.00;78.50;;;;;;691972;28;992;-42
2022/04/11 01:55:11;;;;;;;;;;;15.00;78.50;;;;;;691915;28;1015;-41
2022/04/11 01:55:32;;;;;;;;;;;14.90;78.40;;;;;;689261;28;978;-42
2022/04/11 01:55:53;;;;;;;;;;;14.90;78.50;;;;;;689435;28;973;-41
2022/04/11 01:56:16;;;;;;;;;;;15.00;78.50;;;;;;691850;28;1023;-41
2022/04/11 01:56:37;;;;;;;;;;;14.90;78.50;;;;;;691902;28;1042;-42
2022/04/11 01:57:00;;;;;;;;;;;14.90;78.50;;;;;;691841;28;1089;-43
2022/04/11 01:57:23;;;;;;;;;;;14.90;79.00;;;;;;693503;28;995;-41
2022/04/11 01:57:44;;;;;;;;;;;14.90;78.50;;;;;;691911;28;710;-41
2022/04/11 01:58:05;;;;;;;;;;;14.90;78.50;;;;;;691823;28;1022;-42
2022/04/11 01:58:26;;;;;;;;;;;14.90;78.50;;;;;;691867;28;1050;-41
2022/04/11 01:58:47;;;;;;;;;;;14.90;78.50;;;;;;691978;28;1007;-43
2022/04/11 01:59:08;;;;;;;;;;;14.90;78.50;;;;;;689067;28;1030;-41
2022/04/11 01:59:29;;;;;;;;;;;14.90;78.50;;;;;;689773;28;968;-41
2022/04/11 01:59:49;;;;;;;;;;;14.90;78.50;;;;;;691813;28;1106;-44
2022/04/11 02:00:11;;;;;;;;;;;14.90;78.50;;;;;;691975;28;979;-41
2022/04/11 02:00:32;;;;;;;;;;;15.00;78.60;;;;;;691774;28;1110;-41
2022/04/11 02:00:53;;;;;;;;;;;14.90;78.50;;;;;;689575;28;984;-41
2022/04/11 02:01:17;;;;;;;;;;;14.90;78.50;;;;;;691812;28;1054;-41
2022/04/11 02:01:38;;;;;;;;;;;15.00;78.60;;;;;;691910;28;1113;-42
2022/04/11 02:01:59;;;;;;;;;;;14.90;78.50;;;;;;691860;28;991;-41
2022/04/11 02:02:20;;;;;;;;;;;14.90;78.50;;;;;;691895;28;757;-41
2022/04/11 02:02:41;;;;;;;;;;;14.90;78.60;;;;;;690034;28;1019;-42
2022/04/11 02:03:05;;;;;;;;;;;14.90;78.60;;;;;;691938;28;1015;-43
2022/04/11 02:03:26;;;;;;;;;;;14.90;78.60;;;;;;691818;28;1106;-42
2022/04/11 02:03:46;;;;;;;;;;;14.90;78.50;;;;;;691915;28;1922;-41
2022/04/11 02:04:07;;;;;;;;;;;14.90;78.50;;;;;;691819;28;995;-44
2022/04/11 02:04:31;;;;;;;;;;;14.90;78.50;;;;;;692953;28;975;-43
2022/04/11 02:04:52;;;;;;;;;;;14.90;78.50;;;;;;694684;28;1051;-41
2022/04/11 02:05:13;;;;;;;;;;;14.90;78.50;;;;;;694848;28;974;-42
2022/04/11 02:05:33;;;;;;;;;;;14.90;78.50;;;;;;694628;28;956;-41
2022/04/11 02:05:54;;;;;;;;;;;14.90;78.50;;;;;;694830;28;1011;-42
2022/04/11 02:06:15;;;;;;;;;;;14.90;78.50;;;;;;694742;28;1078;-41
2022/04/11 02:06:36;;;;;;;;;;;14.90;78.50;;;;;;694701;28;786;-42
2022/04/11 02:06:56;;;;;;;;;;;14.90;78.50;;;;;;694731;28;1031;-43
2022/04/11 02:07:19;;;;;;;;;;;14.90;78.50;;;;;;694752;28;960;-43
2022/04/11 02:07:39;;;;;;;;;;;14.90;78.50;;;;;;694635;28;1037;-41
2022/04/11 02:08:00;;;;;;;;;;;14.90;78.50;;;;;;694776;28;1003;-42
2022/04/11 02:08:21;;;;;;;;;;;14.90;78.50;;;;;;694692;28;1011;-43